createdAt,value
2022-11-26T00:00:43.605Z,-0.70
2022-11-26T00:04:46.878Z,-0.90
2022-11-26T00:08:50.306Z,-0.70
2022-11-26T00:12:55.410Z,-0.70
2022-11-26T00:16:58.713Z,-1.00
2022-11-26T00:21:02.614Z,-0.80
2022-11-26T00:25:06.527Z,-0.50
2022-11-26T00:29:12.022Z,-0.60
2022-11-26T00:33:15.248Z,-0.60
2022-11-26T00:37:21.998Z,-0.80
2022-11-26T00:41:28.347Z,-0.70
2022-11-26T00:45:33.121Z,-0.90
2022-11-26T00:49:37.577Z,-0.90
2022-11-26T00:53:40.839Z,-0.90
2022-11-26T00:57:44.553Z,-0.80
2022-11-26T01:01:49.712Z,-0.80
2022-11-26T01:05:56.551Z,-0.70
2022-11-26T01:09:59.799Z,-0.90
2022-11-26T01:14:03.266Z,-0.90
2022-11-26T01:18:14.640Z,-0.90
2022-11-26T01:22:22.337Z,-1.10
2022-11-26T01:26:28.506Z,-1.00
2022-11-26T01:30:34.165Z,-0.90
2022-11-26T01:34:39.153Z,-1.00
2022-11-26T01:38:42.554Z,-0.90
2022-11-26T01:42:51.011Z,-1.00
2022-11-26T01:46:54.833Z,-0.80
2022-11-26T01:51:02.547Z,-0.90
2022-11-26T01:55:21.765Z,-0.90
2022-11-26T01:59:29.799Z,-1.00
2022-11-26T02:03:40.619Z,-0.80
2022-11-26T02:07:46.814Z,-0.80
2022-11-26T02:11:50.376Z,-0.80
2022-11-26T02:16:01.547Z,-0.80
2022-11-26T02:20:33.970Z,-1.00
2022-11-26T02:24:49.552Z,-1.00
2022-11-26T02:29:06.301Z,-1.10
2022-11-26T02:33:17.779Z,-1.00
2022-11-26T02:37:27.057Z,-1.10
2022-11-26T02:41:33.990Z,-0.90
2022-11-26T02:45:40.291Z,-0.70
2022-11-26T02:49:47.780Z,-0.60
2022-11-26T02:53:54.046Z,-0.40
2022-11-26T02:57:59.606Z,-0.60
2022-11-26T03:02:08.140Z,-0.30
2022-11-26T03:06:15.667Z,-0.20
2022-11-26T03:10:21.161Z,-0.20
2022-11-26T03:14:24.561Z,-0.10
2022-11-26T03:18:27.991Z,-0.10
2022-11-26T03:22:33.185Z,0.00
2022-11-26T03:26:36.845Z,0.10
2022-11-26T03:30:40.330Z,-0.10
2022-11-26T03:34:45.271Z,0.30
2022-11-26T03:38:50.360Z,0.10
2022-11-26T03:42:54.366Z,0.30
2022-11-26T03:46:57.817Z,0.10
2022-11-26T03:51:02.941Z,0.30
2022-11-26T03:55:09.857Z,0.20
2022-11-26T03:59:13.610Z,0.40
2022-11-26T04:03:17.740Z,0.30
2022-11-26T04:07:21.352Z,0.40
2022-11-26T04:11:26.756Z,0.30
2022-11-26T04:15:30.271Z,0.60
2022-11-26T04:19:34.217Z,0.30
2022-11-26T04:23:38.154Z,0.50
2022-11-26T04:27:42.813Z,0.30
2022-11-26T04:31:46.397Z,0.30
2022-11-26T04:35:51.249Z,0.60
2022-11-26T04:39:55.674Z,0.50
2022-11-26T04:44:01.266Z,0.60
2022-11-26T04:48:05.215Z,0.60
2022-11-26T04:52:08.504Z,0.60
2022-11-26T04:56:11.985Z,0.50
2022-11-26T05:00:19.895Z,0.70
2022-11-26T05:04:23.385Z,0.60
2022-11-26T05:08:28.968Z,0.60
2022-11-26T05:12:34.988Z,0.90
2022-11-26T05:16:41.537Z,0.60
2022-11-26T05:20:45.458Z,0.70
2022-11-26T05:24:51.846Z,0.70
2022-11-26T05:28:55.109Z,0.70
2022-11-26T05:33:03.551Z,0.80
2022-11-26T05:37:07.143Z,0.80
2022-11-26T05:41:10.572Z,0.70
2022-11-26T05:45:13.917Z,0.80
2022-11-26T05:49:19.044Z,0.90
2022-11-26T05:53:23.031Z,0.60
2022-11-26T05:57:26.458Z,0.70
2022-11-26T06:01:29.902Z,0.70
2022-11-26T06:05:34.595Z,0.60
2022-11-26T06:09:38.606Z,0.60
2022-11-26T06:13:42.809Z,0.70
2022-11-26T06:17:47.402Z,0.70
2022-11-26T06:21:52.067Z,0.90
2022-11-26T06:25:55.964Z,0.70
2022-11-26T06:29:59.473Z,0.90
2022-11-26T06:34:03.100Z,1.00
2022-11-26T06:38:08.242Z,1.00
2022-11-26T06:42:11.930Z,1.00
2022-11-26T06:46:15.864Z,1.10
2022-11-26T06:50:22.207Z,1.10
2022-11-26T06:54:27.404Z,1.10
2022-11-26T06:58:30.713Z,1.10
2022-11-26T07:02:34.593Z,1.20
2022-11-26T07:06:39.419Z,1.20
2022-11-26T07:10:48.845Z,1.20
2022-11-26T07:14:52.679Z,1.20
2022-11-26T07:19:02.649Z,1.40
2022-11-26T07:23:06.816Z,1.60
2022-11-26T07:27:12.165Z,1.70
2022-11-26T07:31:19.112Z,1.90
2022-11-26T07:35:22.988Z,1.80
2022-11-26T07:39:27.406Z,2.10
2022-11-26T07:43:32.725Z,2.20
2022-11-26T07:47:36.188Z,2.40
2022-11-26T07:51:39.880Z,2.40
2022-11-26T07:55:43.367Z,2.70
2022-11-26T07:59:48.577Z,3.10
2022-11-26T08:03:53.580Z,3.30
2022-11-26T08:07:56.833Z,3.50
2022-11-26T08:12:03.085Z,3.80
2022-11-26T08:16:09.060Z,4.10
2022-11-26T08:20:13.305Z,4.30
2022-11-26T08:24:20.010Z,4.50
2022-11-26T08:28:23.922Z,4.70
2022-11-26T08:32:29.029Z,4.80
2022-11-26T08:36:33.614Z,5.00
2022-11-26T08:40:36.994Z,5.20
2022-11-26T08:44:41.707Z,5.40
2022-11-26T08:48:46.617Z,5.50
2022-11-26T08:52:50.010Z,5.70
2022-11-26T08:56:54.032Z,5.90
2022-11-26T09:00:58.085Z,6.20
2022-11-26T09:05:04.154Z,6.50
2022-11-26T09:09:15.341Z,6.70
2022-11-26T09:13:21.198Z,7.00
2022-11-26T09:17:28.057Z,7.40
2022-11-26T09:21:33.620Z,7.70
2022-11-26T09:25:39.693Z,8.10
2022-11-26T09:29:43.158Z,8.40
2022-11-26T09:33:47.181Z,8.60
2022-11-26T09:37:53.295Z,9.00
2022-11-26T09:42:10.111Z,9.80
2022-11-26T09:56:55.462Z,10.90
2022-11-26T10:01:13.233Z,10.70
2022-11-26T10:05:22.366Z,11.00
2022-11-26T10:21:00.051Z,11.30
2022-11-26T10:25:17.125Z,11.50
2022-11-26T10:29:24.642Z,12.30
2022-11-26T10:39:16.229Z,13.10
2022-11-26T10:44:42.974Z,12.90
2022-11-26T10:48:48.993Z,13.10
2022-11-26T10:53:20.650Z,13.60
2022-11-26T11:09:30.236Z,11.90
2022-11-26T11:13:47.215Z,11.70
2022-11-26T11:51:16.626Z,11.70
2022-11-26T11:55:28.216Z,11.30
2022-11-26T12:00:10.737Z,11.30
2022-11-26T12:04:25.112Z,11.40
2022-11-26T12:08:43.955Z,11.10
2022-11-26T12:12:53.205Z,10.90
2022-11-26T12:16:59.586Z,11.00
2022-11-26T12:21:07.891Z,11.60
2022-11-26T12:25:23.675Z,12.60
2022-11-26T12:29:36.494Z,12.20
2022-11-26T12:33:43.651Z,11.70
2022-11-26T12:37:51.027Z,11.40
2022-11-26T12:41:57.678Z,11.10
2022-11-26T12:46:06.025Z,11.00
2022-11-26T12:50:19.561Z,11.80
2022-11-26T12:54:28.214Z,12.10
2022-11-26T12:58:42.411Z,11.80
2022-11-26T13:02:50.466Z,11.20
2022-11-26T13:07:07.996Z,10.90
2022-11-26T13:11:32.268Z,10.70
2022-11-26T13:15:42.187Z,10.30
2022-11-26T13:19:53.273Z,9.90
2022-11-26T13:24:18.724Z,9.30
2022-11-26T13:28:34.240Z,8.70
2022-11-26T13:33:07.945Z,8.30
2022-11-26T13:37:36.845Z,7.90
2022-11-26T13:42:08.054Z,7.70
2022-11-26T13:46:21.864Z,7.50
2022-11-26T13:50:34.000Z,7.40
2022-11-26T13:54:43.988Z,7.30
2022-11-26T13:58:50.777Z,7.30
2022-11-26T14:02:54.290Z,7.30
2022-11-26T14:07:24.821Z,7.30
2022-11-26T14:11:57.003Z,7.10
2022-11-26T14:16:03.165Z,7.10
2022-11-26T14:20:12.918Z,7.30
2022-11-26T14:24:55.682Z,7.40
2022-11-26T14:29:12.214Z,7.50
2022-11-26T14:33:20.117Z,7.60
2022-11-26T14:37:25.766Z,7.60
2022-11-26T14:41:33.708Z,7.50
2022-11-26T14:45:38.974Z,7.30
2022-11-26T14:49:45.992Z,7.00
2022-11-26T14:53:52.083Z,6.60
2022-11-26T14:57:59.157Z,6.30
2022-11-26T15:02:04.542Z,6.00
2022-11-26T15:06:08.645Z,5.80
2022-11-26T15:10:21.344Z,5.50
2022-11-26T15:14:31.160Z,5.40
2022-11-26T15:18:37.277Z,5.30
2022-11-26T15:22:47.313Z,5.30
2022-11-26T15:26:51.567Z,5.30
2022-11-26T15:30:57.661Z,5.20
2022-11-26T15:35:04.279Z,5.20
2022-11-26T15:39:09.089Z,5.10
2022-11-26T15:43:22.444Z,4.80
2022-11-26T15:47:29.044Z,4.70
2022-11-26T15:51:38.763Z,4.50
2022-11-26T15:55:47.045Z,4.40
2022-11-26T15:59:56.209Z,4.40
2022-11-26T16:04:04.840Z,4.20
2022-11-26T16:08:27.194Z,4.00
2022-11-26T16:12:32.998Z,3.70
2022-11-26T16:16:37.799Z,3.60
2022-11-26T16:20:41.237Z,3.30
2022-11-26T16:24:47.300Z,3.20
2022-11-26T16:28:51.573Z,3.10
2022-11-26T16:32:55.190Z,3.00
2022-11-26T16:37:03.936Z,2.90
2022-11-26T16:41:13.431Z,2.80
2022-11-26T16:45:18.018Z,2.60
2022-11-26T16:49:24.150Z,2.50
2022-11-26T16:53:28.447Z,2.30
2022-11-26T16:57:34.170Z,2.30
2022-11-26T17:01:37.859Z,2.20
2022-11-26T17:05:43.376Z,2.30
2022-11-26T17:09:47.509Z,2.20
2022-11-26T17:13:56.239Z,2.00
2022-11-26T17:18:04.883Z,1.90
2022-11-26T17:22:08.820Z,1.90
2022-11-26T17:26:21.110Z,1.80
2022-11-26T17:30:27.357Z,1.80
2022-11-26T17:34:33.265Z,1.70
2022-11-26T17:38:39.519Z,1.60
2022-11-26T17:42:43.571Z,1.50
2022-11-26T17:47:15.326Z,1.40
2022-11-26T17:51:14.533Z,1.30
2022-11-26T17:55:20.385Z,1.30
2022-11-26T17:59:24.662Z,1.30
2022-11-26T18:03:29.780Z,1.20
2022-11-26T18:07:33.329Z,1.10
2022-11-26T18:11:46.020Z,1.10
2022-11-26T18:15:49.885Z,1.00
2022-11-26T18:19:55.144Z,1.00
2022-11-26T18:24:00.028Z,0.90
2022-11-26T18:28:04.892Z,0.90
2022-11-26T18:32:09.037Z,0.90
2022-11-26T18:36:15.415Z,0.70
2022-11-26T18:40:20.348Z,0.70
2022-11-26T18:44:24.857Z,0.70
2022-11-26T18:48:37.059Z,0.70
2022-11-26T18:52:46.695Z,0.60
2022-11-26T18:56:55.655Z,0.60
2022-11-26T19:01:04.745Z,0.50
2022-11-26T19:05:22.529Z,0.60
2022-11-26T19:09:31.717Z,0.30
2022-11-26T19:13:42.341Z,0.60
2022-11-26T19:17:52.247Z,0.50
2022-11-26T19:22:04.855Z,0.50
2022-11-26T19:26:17.542Z,0.30
2022-11-26T19:30:31.436Z,0.20
2022-11-26T19:34:40.430Z,0.20
2022-11-26T19:38:57.594Z,0.20
2022-11-26T19:43:08.324Z,0.30
2022-11-26T19:47:28.677Z,0.20
2022-11-26T19:51:40.577Z,0.10
2022-11-26T19:55:57.179Z,0.10
2022-11-26T20:00:12.650Z,-0.10
2022-11-26T20:04:20.852Z,0.20
2022-11-26T20:08:28.654Z,-0.30
2022-11-26T20:12:37.160Z,0.00
2022-11-26T20:16:56.389Z,-0.10
2022-11-26T20:21:10.353Z,-0.20
2022-11-26T20:25:27.280Z,-0.20
2022-11-26T20:29:39.729Z,-0.30
2022-11-26T20:33:46.751Z,-0.50
2022-11-26T20:37:53.420Z,-0.40
2022-11-26T20:42:05.436Z,-0.20
2022-11-26T20:46:17.945Z,-0.20
2022-11-26T20:50:23.948Z,-0.40
2022-11-26T20:54:30.608Z,-0.30
2022-11-26T20:58:40.568Z,-0.50
2022-11-26T21:02:45.675Z,-0.50
2022-11-26T21:06:50.999Z,-0.30
2022-11-26T21:10:55.251Z,-0.50
2022-11-26T21:14:59.763Z,-0.40
2022-11-26T21:19:04.080Z,-0.40
2022-11-26T21:23:15.228Z,-0.50
2022-11-26T21:27:19.123Z,-0.60
2022-11-26T21:31:24.429Z,-0.40
2022-11-26T21:35:27.903Z,-0.60
2022-11-26T21:39:33.011Z,-0.40
2022-11-26T21:43:37.473Z,-0.50
2022-11-26T21:47:41.498Z,-0.30
2022-11-26T21:51:45.169Z,-0.40
2022-11-26T21:55:50.911Z,-0.20
2022-11-26T21:59:54.533Z,-0.10
2022-11-26T22:04:00.973Z,0.00
2022-11-26T22:08:04.626Z,-0.20
2022-11-26T22:12:11.399Z,-0.90
2022-11-26T22:16:17.761Z,-0.60
2022-11-26T22:20:21.248Z,-0.50
2022-11-26T22:24:24.869Z,-0.60
2022-11-26T22:28:31.035Z,-0.70
2022-11-26T22:32:36.339Z,-0.70
2022-11-26T22:36:40.516Z,-1.00
2022-11-26T22:40:44.915Z,-0.80
2022-11-26T22:44:49.510Z,-0.80
2022-11-26T22:48:54.371Z,-0.60
2022-11-26T22:52:57.808Z,-0.70
2022-11-26T22:57:01.172Z,-0.90
2022-11-26T23:01:07.782Z,-0.70
2022-11-26T23:05:11.565Z,-0.90
2022-11-26T23:09:14.857Z,-0.80
2022-11-26T23:13:18.768Z,-0.80
2022-11-26T23:17:23.753Z,-1.10
2022-11-26T23:21:28.566Z,-0.90
2022-11-26T23:25:32.076Z,-1.10
2022-11-26T23:29:35.440Z,-1.00
2022-11-26T23:33:40.222Z,-1.10
2022-11-26T23:37:43.525Z,-1.10
2022-11-26T23:41:46.881Z,-1.40
2022-11-26T23:45:50.384Z,-1.30
2022-11-26T23:49:58.396Z,-1.20
2022-11-26T23:54:04.031Z,-1.20
2022-11-26T23:58:07.420Z,-1.30
